Time;durP1;ratioP1;P1;durP2;ratioP2;P2;SDS_P1;SDS_P2;PMS_P1;PMS_P2;Temp;Humidity;BMP_temperature;BMP_pressure;BME280_temperature;BME280_humidity;BME280_pressure;Samples;Min_cycle;Max_cycle;Signal;HPM_P1;HPM_P2
2021/05/22 00:01:30;;;;;;;3.37;1.80;;;15.10;78.40;;;;;;5018650;28;20848;-84
2021/05/22 00:03:58;;;;;;;1.93;1.53;;;15.00;80.80;;;;;;5013646;28;20230;-83
2021/05/22 00:06:26;;;;;;;3.30;2.00;;;14.90;81.80;;;;;;5011263;28;20195;-85
2021/05/22 00:08:54;;;;;;;4.17;1.60;;;14.70;82.10;;;;;;5005774;28;20218;-84
2021/05/22 00:11:23;;;;;;;3.13;1.60;;;14.60;83.00;;;;;;5015067;28;20214;-83
2021/05/22 00:13:51;;;;;;;2.00;1.80;;;14.50;83.50;;;;;;5024923;28;20228;-84
2021/05/22 00:16:20;;;;;;;4.57;2.37;;;14.50;83.70;;;;;;5009726;28;20554;-85
2021/05/22 00:18:49;;;;;;;4.03;1.90;;;14.50;83.50;;;;;;5014667;28;20237;-86
2021/05/22 00:21:17;;;;;;;3.40;2.10;;;14.50;83.90;;;;;;5025965;28;20203;-84
2021/05/22 00:23:45;;;;;;;2.13;1.93;;;14.50;83.30;;;;;;5021435;28;20207;-85
2021/05/22 00:26:13;;;;;;;2.17;1.97;;;14.60;83.20;;;;;;5029448;28;20312;-84
2021/05/22 00:28:42;;;;;;;3.37;1.70;;;14.60;83.50;;;;;;5024116;28;20234;-85
2021/05/22 00:31:11;;;;;;;3.50;1.97;;;14.60;83.70;;;;;;5014421;28;20211;-84
2021/05/22 00:33:40;;;;;;;2.33;1.60;;;14.50;83.50;;;;;;5022033;28;20206;-83
2021/05/22 00:36:08;;;;;;;3.87;1.80;;;14.60;83.40;;;;;;5023765;28;20933;-83
2021/05/22 00:38:36;;;;;;;1.70;1.60;;;14.60;83.10;;;;;;5036121;28;20190;-85
2021/05/22 00:41:04;;;;;;;2.53;1.80;;;14.60;83.50;;;;;;5022453;28;20204;-85
2021/05/22 00:43:32;;;;;;;3.17;1.90;;;14.60;83.50;;;;;;5039352;28;20207;-83
2021/05/22 00:46:01;;;;;;;2.23;1.50;;;14.60;83.90;;;;;;5033900;28;20207;-86
2021/05/22 00:48:29;;;;;;;2.10;1.77;;;14.60;83.50;;;;;;5038886;28;20210;-84
2021/05/22 00:50:57;;;;;;;2.17;1.70;;;14.60;83.00;;;;;;5027617;28;20210;-84
2021/05/22 00:53:27;;;;;;;2.57;1.70;;;14.60;83.20;;;;;;5031610;28;20242;-85
2021/05/22 00:55:57;;;;;;;2.30;2.00;;;14.60;83.20;;;;;;5028945;28;20509;-84
2021/05/22 00:58:25;;;;;;;2.20;1.50;;;14.60;83.00;;;;;;5021041;28;20225;-83
2021/05/22 01:00:56;;;;;;;4.10;1.67;;;14.70;83.00;;;;;;5008266;28;20214;-83
2021/05/22 01:03:27;;;;;;;1.80;1.37;;;14.50;83.00;;;;;;5008921;28;21102;-82
2021/05/22 01:06:08;;;;;;;2.27;1.57;;;14.60;82.90;;;;;;5015579;28;20210;-83
2021/05/22 01:08:37;;;;;;;1.90;1.10;;;14.50;82.90;;;;;;5012307;28;20282;-85
2021/05/22 01:11:12;;;;;;;1.53;1.43;;;14.50;83.00;;;;;;5008227;28;20212;-86
2021/05/22 01:13:41;;;;;;;2.00;1.40;;;14.50;83.10;;;;;;5006157;28;20222;-84
2021/05/22 01:16:11;;;;;;;1.50;1.40;;;14.50;83.40;;;;;;5009435;28;20619;-82
2021/05/22 01:18:41;;;;;;;3.97;1.70;;;14.40;83.30;;;;;;5003342;28;20223;-85
2021/05/22 01:21:09;;;;;;;2.70;1.60;;;14.40;83.40;;;;;;5002011;28;20195;-84
2021/05/22 01:23:41;;;;;;;2.50;1.73;;;14.40;83.50;;;;;;5010005;28;20561;-83
2021/05/22 01:26:11;;;;;;;1.80;1.70;;;14.30;83.60;;;;;;5001329;28;20277;-86
2021/05/22 01:28:40;;;;;;;3.60;1.63;;;14.30;83.70;;;;;;5010235;28;20203;-84
2021/05/22 01:31:09;;;;;;;1.60;1.50;;;14.30;83.90;;;;;;5005171;28;20203;-85
2021/05/22 01:33:38;;;;;;;2.00;1.70;;;14.20;84.10;;;;;;5021431;28;20199;-85
2021/05/22 01:36:07;;;;;;;2.70;1.90;;;14.20;84.20;;;;;;5025784;28;20289;-84
2021/05/22 01:38:35;;;;;;;2.30;1.70;;;14.10;84.20;;;;;;5015745;28;20211;-84
2021/05/22 01:41:03;;;;;;;2.97;1.77;;;14.00;84.50;;;;;;5010424;28;20208;-84
2021/05/22 01:43:33;;;;;;;3.10;1.90;;;14.00;84.50;;;;;;5012581;28;20208;-85
2021/05/22 01:46:01;;;;;;;3.13;2.00;;;14.10;84.70;;;;;;5005819;28;20226;-85
2021/05/22 01:48:30;;;;;;;2.90;2.13;;;13.80;84.60;;;;;;5010219;28;20734;-84
2021/05/22 01:51:01;;;;;;;2.43;1.90;;;13.80;85.00;;;;;;5010888;28;20287;-85
2021/05/22 01:53:30;;;;;;;2.50;2.00;;;13.70;85.20;;;;;;5010028;28;20219;-83
2021/05/22 01:55:58;;;;;;;2.23;1.70;;;13.70;85.30;;;;;;5006810;28;20238;-82
2021/05/22 01:58:27;;;;;;;4.47;1.80;;;13.70;85.40;;;;;;5016105;28;20207;-83
2021/05/22 02:00:56;;;;;;;3.13;1.80;;;13.60;85.60;;;;;;5014624;28;20208;-86
2021/05/22 02:03:30;;;;;;;1.70;1.60;;;13.60;85.70;;;;;;5015986;28;20310;-83
2021/05/22 02:06:00;;;;;;;2.40;1.60;;;13.60;85.70;;;;;;5006796;28;20199;-84
2021/05/22 02:08:33;;;;;;;2.83;1.70;;;13.50;85.90;;;;;;5026594;28;20189;-83
2021/05/22 02:11:01;;;;;;;3.73;1.70;;;13.50;86.00;;;;;;5023519;28;20972;-83
2021/05/22 02:13:29;;;;;;;1.80;1.70;;;13.40;86.20;;;;;;5032829;28;20209;-83
2021/05/22 02:16:01;;;;;;;2.17;1.90;;;13.20;86.40;;;;;;5038555;28;20227;-84
2021/05/22 02:18:33;;;;;;;2.27;1.70;;;13.30;87.00;;;;;;5031132;28;20265;-84
2021/05/22 02:21:04;;;;;;;2.73;1.80;;;13.20;87.20;;;;;;5020397;28;20203;-85
2021/05/22 02:23:41;;;;;;;2.63;1.90;;;13.20;87.30;;;;;;5027534;28;20283;-83
2021/05/22 02:26:09;;;;;;;3.77;2.40;;;13.20;87.50;;;;;;5025013;28;20203;-83
2021/05/22 02:28:42;;;;;;;2.40;1.57;;;13.20;87.50;;;;;;5022878;28;20210;-84
2021/05/22 02:31:12;;;;;;;2.10;1.90;;;13.20;87.50;;;;;;5024116;28;20342;-86
2021/05/22 02:33:40;;;;;;;3.50;2.00;;;13.20;87.70;;;;;;5024165;28;20202;-85
2021/05/22 02:36:08;;;;;;;2.20;2.00;;;13.30;87.70;;;;;;5024579;28;20257;-84
2021/05/22 02:38:42;;;;;;;2.33;2.00;;;13.20;87.70;;;;;;5032914;28;20187;-84
2021/05/22 02:41:11;;;;;;;3.80;2.10;;;13.20;87.90;;;;;;5026312;28;20284;-83
2021/05/22 02:43:45;;;;;;;2.10;1.90;;;13.40;88.10;;;;;;5027511;28;20235;-82
2021/05/22 02:46:16;;;;;;;3.60;2.30;;;13.20;88.20;;;;;;5023893;28;20193;-85
2021/05/22 02:48:45;;;;;;;2.30;2.07;;;13.20;88.40;;;;;;5016436;28;20506;-82
2021/05/22 02:51:17;;;;;;;4.60;2.80;;;13.20;88.50;;;;;;5002383;28;20996;-85
2021/05/22 02:53:50;;;;;;;4.23;2.80;;;13.20;88.60;;;;;;5008262;28;20199;-85
2021/05/22 02:56:19;;;;;;;2.30;2.03;;;13.10;88.90;;;;;;5016477;28;20224;-83
2021/05/22 02:58:49;;;;;;;3.20;2.30;;;13.10;89.00;;;;;;5015150;28;20214;-84
2021/05/22 03:01:19;;;;;;;3.47;2.40;;;13.20;88.90;;;;;;5006459;28;20223;-84
2021/05/22 03:03:48;;;;;;;3.43;2.57;;;13.20;89.20;;;;;;5036924;28;20198;-83
2021/05/22 03:06:16;;;;;;;3.80;2.47;;;13.20;89.00;;;;;;5018067;28;20202;-82
2021/05/22 03:08:46;;;;;;;2.77;2.30;;;13.20;89.00;;;;;;5031007;28;21424;-83
2021/05/22 03:11:16;;;;;;;2.60;2.33;;;13.20;89.20;;;;;;5020052;28;20213;-82
2021/05/22 03:13:44;;;;;;;2.90;2.10;;;13.20;89.00;;;;;;5008313;28;20211;-86
2021/05/22 03:16:13;;;;;;;7.03;2.60;;;13.20;89.10;;;;;;5004992;28;20215;-83
2021/05/22 03:18:42;;;;;;;2.67;2.47;;;13.40;89.10;;;;;;5011609;28;20203;-84
2021/05/22 03:21:11;;;;;;;3.20;2.30;;;13.20;89.00;;;;;;5015542;28;20199;-84
2021/05/22 03:23:40;;;;;;;2.87;2.40;;;13.20;89.10;;;;;;5025176;28;20226;-86
2021/05/22 03:26:08;;;;;;;2.40;2.20;;;13.20;89.20;;;;;;5028973;28;21072;-84
2021/05/22 03:28:36;;;;;;;2.43;2.23;;;13.20;89.20;;;;;;5021818;28;20171;-85
2021/05/22 03:31:09;;;;;;;3.67;2.47;;;13.30;89.30;;;;;;5028920;28;20320;-85
2021/05/22 03:33:37;;;;;;;2.30;2.10;;;13.10;89.20;;;;;;5028616;28;20587;-85
2021/05/22 03:36:07;;;;;;;4.17;2.60;;;13.30;89.20;;;;;;5028531;28;20226;-86
2021/05/22 03:38:35;;;;;;;2.93;2.37;;;13.30;89.30;;;;;;5031746;28;20175;-84
2021/05/22 03:41:03;;;;;;;4.23;2.67;;;13.30;89.60;;;;;;5032609;28;20206;-86
2021/05/22 03:43:31;;;;;;;3.33;2.40;;;13.30;89.60;;;;;;5019668;28;20261;-86
2021/05/22 03:46:00;;;;;;;2.83;2.40;;;13.30;89.30;;;;;;5018690;28;20230;-84
2021/05/22 03:48:28;;;;;;;5.20;2.60;;;13.30;89.20;;;;;;4996242;28;20215;-85
2021/05/22 03:50:56;;;;;;;2.80;2.57;;;13.40;89.20;;;;;;4986907;28;20215;-85
2021/05/22 03:53:26;;;;;;;4.93;2.17;;;13.40;89.30;;;;;;4995502;28;20195;-86
2021/05/22 03:55:54;;;;;;;2.57;2.37;;;13.40;89.10;;;;;;4994311;28;20239;-85
2021/05/22 03:58:22;;;;;;;3.43;2.50;;;13.50;89.00;;;;;;4991424;28;20267;-84
2021/05/22 04:00:50;;;;;;;2.37;2.17;;;13.50;89.00;;;;;;4991136;28;20216;-85
2021/05/22 04:03:18;;;;;;;3.53;2.60;;;13.60;88.80;;;;;;4995171;28;20211;-85
2021/05/22 04:05:47;;;;;;;2.93;2.10;;;13.60;88.70;;;;;;4996510;28;20592;-84
2021/05/22 04:08:15;;;;;;;2.47;2.27;;;13.70;88.60;;;;;;4992522;28;20474;-84
2021/05/22 04:10:44;;;;;;;2.30;2.10;;;13.70;88.60;;;;;;4992178;28;20209;-83
2021/05/22 04:13:13;;;;;;;2.60;2.40;;;13.60;88.50;;;;;;4988401;28;20278;-85
2021/05/22 04:15:42;;;;;;;2.67;2.47;;;13.60;88.40;;;;;;4998424;28;20227;-84
2021/05/22 04:18:10;;;;;;;2.77;2.57;;;13.60;88.60;;;;;;4992786;28;20314;-84
2021/05/22 04:20:39;;;;;;;2.60;2.40;;;13.60;88.40;;;;;;5005684;28;20570;-84
2021/05/22 04:23:07;;;;;;;3.30;2.40;;;13.70;88.60;;;;;;4996432;28;20287;-85
2021/05/22 04:25:35;;;;;;;2.23;2.03;;;13.80;88.30;;;;;;4999115;28;20196;-84
2021/05/22 04:28:05;;;;;;;2.70;2.20;;;13.90;88.00;;;;;;5002015;28;20639;-84
2021/05/22 04:30:33;;;;;;;3.57;2.40;;;14.00;88.00;;;;;;4997606;28;20818;-84
2021/05/22 04:33:01;;;;;;;3.43;2.17;;;14.20;87.80;;;;;;4999613;28;20208;-84
2021/05/22 04:35:29;;;;;;;2.73;2.10;;;14.20;87.30;;;;;;5001782;28;20210;-83
2021/05/22 04:37:58;;;;;;;6.83;2.60;;;14.30;87.10;;;;;;5001383;28;20243;-83
2021/05/22 04:40:27;;;;;;;3.03;2.00;;;14.50;86.90;;;;;;4997117;28;20200;-83
2021/05/22 04:42:56;;;;;;;4.17;2.00;;;14.60;86.60;;;;;;5005112;28;20230;-84
2021/05/22 04:45:25;;;;;;;1.77;1.67;;;14.70;86.60;;;;;;5007895;28;20218;-83
2021/05/22 04:47:53;;;;;;;2.10;1.60;;;14.90;86.20;;;;;;4997587;28;20196;-84
2021/05/22 04:50:21;;;;;;;2.20;1.90;;;14.90;85.90;;;;;;4995148;28;20636;-84
2021/05/22 04:52:53;;;;;;;2.27;1.63;;;14.90;85.90;;;;;;5001195;28;20204;-84
2021/05/22 04:55:22;;;;;;;2.17;1.70;;;14.90;85.90;;;;;;4995913;28;20204;-84
2021/05/22 04:57:50;;;;;;;2.77;1.90;;;14.80;85.70;;;;;;5000228;28;20227;-84
2021/05/22 05:00:20;;;;;;;3.13;1.50;;;14.80;85.70;;;;;;4990723;28;20261;-85
2021/05/22 05:02:51;;;;;;;2.93;1.80;;;14.90;85.80;;;;;;4991745;28;20286;-84
2021/05/22 05:05:24;;;;;;;2.27;1.70;;;15.00;85.60;;;;;;4987715;28;20208;-85
2021/05/22 05:07:52;;;;;;;2.90;1.70;;;15.00;85.60;;;;;;4987734;28;20920;-84
2021/05/22 05:10:20;;;;;;;2.17;1.50;;;15.00;85.50;;;;;;4986539;28;20299;-84
2021/05/22 05:12:49;;;;;;;2.67;2.30;;;15.10;85.70;;;;;;4987107;28;20701;-85
2021/05/22 05:15:17;;;;;;;1.87;1.60;;;15.00;85.70;;;;;;4990249;28;20791;-87
2021/05/22 05:17:45;;;;;;;2.43;2.07;;;15.10;85.70;;;;;;5001578;28;20227;-85
2021/05/22 05:20:15;;;;;;;3.00;2.00;;;15.20;85.50;;;;;;5010696;28;20373;-85
2021/05/22 05:22:43;;;;;;;2.30;1.93;;;15.30;85.30;;;;;;5012681;28;20589;-87
2021/05/22 05:25:13;;;;;;;2.33;1.80;;;15.60;84.60;;;;;;5008032;28;20180;-84
2021/05/22 05:27:42;;;;;;;2.80;1.70;;;15.70;84.90;;;;;;5012538;28;20200;-84
2021/05/22 05:30:11;;;;;;;2.07;1.70;;;15.90;84.60;;;;;;5008154;28;21399;-85
2021/05/22 05:32:39;;;;;;;1.50;1.40;;;16.10;84.20;;;;;;5006136;28;20196;-87
2021/05/22 05:35:09;;;;;;;2.73;1.30;;;16.30;83.80;;;;;;5011733;28;20191;-86
2021/05/22 05:37:39;;;;;;;2.50;1.30;;;16.30;83.50;;;;;;4993479;28;20740;-83
2021/05/22 05:40:13;;;;;;;2.70;1.60;;;16.40;83.10;;;;;;4991201;28;20593;-85
2021/05/22 05:42:41;;;;;;;2.10;1.20;;;16.40;83.10;;;;;;4984220;28;20215;-84
2021/05/22 05:45:12;;;;;;;1.67;1.57;;;16.40;83.00;;;;;;5000440;28;20279;-83
2021/05/22 05:47:40;;;;;;;1.83;1.30;;;16.70;83.10;;;;;;5020161;28;20184;-85
2021/05/22 05:50:13;;;;;;;3.80;1.30;;;16.80;82.40;;;;;;4992867;28;20195;-85
2021/05/22 05:52:43;;;;;;;1.93;1.37;;;16.90;82.50;;;;;;4989941;28;20275;-85
2021/05/22 05:55:11;;;;;;;2.60;1.70;;;16.80;82.20;;;;;;4991335;28;20208;-86
2021/05/22 05:57:39;;;;;;;5.00;1.33;;;16.70;82.10;;;;;;5014951;28;20227;-85
2021/05/22 06:00:09;;;;;;;1.43;1.23;;;16.50;82.50;;;;;;5012380;28;20243;-84
2021/05/22 06:02:37;;;;;;;3.27;1.60;;;16.40;82.60;;;;;;5012408;28;20188;-84
2021/05/22 06:05:09;;;;;;;2.97;1.40;;;16.20;82.80;;;;;;5016605;28;20984;-86
2021/05/22 06:07:39;;;;;;;2.63;1.30;;;16.20;82.70;;;;;;5015078;28;20206;-85
2021/05/22 06:10:10;;;;;;;1.50;1.40;;;16.20;82.90;;;;;;5010182;28;20220;-85
2021/05/22 06:12:40;;;;;;;1.30;1.17;;;16.30;82.80;;;;;;5011516;28;20773;-85
2021/05/22 06:15:21;;;;;;;2.70;1.23;;;16.40;82.60;;;;;;5010194;28;20423;-85
2021/05/22 06:17:52;;;;;;;1.33;1.00;;;16.50;82.50;;;;;;4990970;28;20290;-85
2021/05/22 06:20:22;;;;;;;1.33;1.23;;;16.70;82.30;;;;;;4993866;28;20186;-86
2021/05/22 06:22:50;;;;;;;1.40;1.30;;;16.70;82.10;;;;;;5008140;28;20233;-85
2021/05/22 06:25:19;;;;;;;1.93;1.23;;;16.70;82.10;;;;;;5013303;28;20199;-85
2021/05/22 06:27:47;;;;;;;1.67;1.30;;;16.50;82.50;;;;;;5018596;28;20196;-85
2021/05/22 06:30:17;;;;;;;1.83;1.23;;;16.50;82.40;;;;;;5010933;28;20176;-86
2021/05/22 06:32:45;;;;;;;1.63;1.20;;;16.60;82.70;;;;;;5012897;28;20198;-84
2021/05/22 06:35:14;;;;;;;1.47;1.20;;;16.80;82.40;;;;;;5012639;28;20235;-84
2021/05/22 06:37:42;;;;;;;2.43;1.40;;;16.90;82.20;;;;;;5010889;28;20271;-86
2021/05/22 06:40:15;;;;;;;1.10;1.10;;;17.00;82.20;;;;;;5012995;28;20267;-86
2021/05/22 06:42:44;;;;;;;1.57;1.27;;;16.90;82.00;;;;;;5006816;28;20196;-86
2021/05/22 06:45:16;;;;;;;1.53;1.10;;;17.10;82.20;;;;;;5011945;28;20610;-85
2021/05/22 06:47:48;;;;;;;1.50;1.30;;;17.20;81.80;;;;;;5007747;28;20211;-84
2021/05/22 06:50:17;;;;;;;1.83;1.33;;;17.30;81.60;;;;;;4996411;28;20211;-83
2021/05/22 06:52:46;;;;;;;1.40;1.30;;;17.30;81.70;;;;;;4991243;28;20207;-85
2021/05/22 06:55:15;;;;;;;1.50;1.20;;;17.30;81.60;;;;;;4999292;28;20230;-84
2021/05/22 06:57:44;;;;;;;2.00;1.37;;;17.50;81.80;;;;;;4992384;28;20359;-85
2021/05/22 07:00:14;;;;;;;1.93;1.23;;;17.80;81.50;;;;;;4994531;28;20200;-84
2021/05/22 07:02:43;;;;;;;2.23;1.20;;;18.00;81.40;;;;;;4987975;28;20254;-89
2021/05/22 07:05:12;;;;;;;2.60;1.40;;;18.00;81.30;;;;;;4990005;28;20728;-85
2021/05/22 07:07:41;;;;;;;1.83;1.30;;;18.00;81.30;;;;;;4991193;28;20199;-85
2021/05/22 07:10:11;;;;;;;1.90;1.20;;;17.80;81.20;;;;;;4991109;28;20501;-83
2021/05/22 07:12:39;;;;;;;1.00;1.00;;;17.90;81.30;;;;;;4999983;28;20242;-86
2021/05/22 07:15:10;;;;;;;1.40;1.30;;;17.70;81.10;;;;;;4990819;28;20235;-86
2021/05/22 07:17:39;;;;;;;1.47;1.10;;;17.70;81.40;;;;;;4991098;28;20227;-85
2021/05/22 07:20:10;;;;;;;1.07;1.00;;;17.70;81.70;;;;;;4996241;28;20211;-85
2021/05/22 07:22:39;;;;;;;2.10;1.27;;;17.70;81.40;;;;;;4985339;28;20579;-84
2021/05/22 07:25:08;;;;;;;1.33;1.23;;;17.80;81.50;;;;;;4998740;28;20286;-85
2021/05/22 07:27:37;;;;;;;1.97;1.30;;;17.90;81.40;;;;;;5000911;28;20225;-85
2021/05/22 07:30:08;;;;;;;1.27;1.13;;;17.80;81.40;;;;;;5004271;28;20212;-86
2021/05/22 07:32:45;;;;;;;1.97;1.20;;;17.70;81.40;;;;;;5000792;28;20199;-85
2021/05/22 07:35:16;;;;;;;1.40;0.90;;;17.40;81.50;;;;;;5005655;28;20206;-83
2021/05/22 07:37:45;;;;;;;2.83;1.50;;;17.30;81.70;;;;;;4999544;28;20334;-85
2021/05/22 07:40:16;;;;;;;1.93;1.47;;;17.20;81.80;;;;;;5007026;28;20183;-85
2021/05/22 07:42:50;;;;;;;2.20;1.60;;;17.40;81.70;;;;;;5002530;28;20195;-85
2021/05/22 07:45:19;;;;;;;2.27;1.40;;;17.40;81.70;;;;;;5009093;28;20320;-86
2021/05/22 07:47:55;;;;;;;1.33;1.20;;;17.60;81.70;;;;;;4988373;28;20210;-85
2021/05/22 07:50:24;;;;;;;2.07;1.20;;;17.80;81.30;;;;;;4997297;28;20192;-85
2021/05/22 07:52:53;;;;;;;1.77;1.23;;;17.70;81.50;;;;;;4985798;28;20239;-84
2021/05/22 07:55:21;;;;;;;2.50;1.07;;;17.80;81.30;;;;;;4987635;28;20659;-84
2021/05/22 07:57:50;;;;;;;4.07;1.20;;;17.90;81.10;;;;;;4995077;28;20244;-86
2021/05/22 08:00:21;;;;;;;2.07;1.43;;;18.10;81.10;;;;;;4992848;28;20240;-85
2021/05/22 08:02:50;;;;;;;1.67;1.37;;;18.10;80.90;;;;;;4991536;28;20211;-86
2021/05/22 08:05:26;;;;;;;1.53;1.23;;;18.20;81.20;;;;;;4990096;28;20323;-83
2021/05/22 08:07:58;;;;;;;1.53;1.30;;;18.50;80.90;;;;;;4996812;28;20212;-84
2021/05/22 08:10:30;;;;;;;1.10;1.00;;;18.80;80.60;;;;;;5009106;28;20214;-85
2021/05/22 08:12:59;;;;;;;3.40;1.30;;;18.80;79.90;;;;;;4997458;28;20220;-83
2021/05/22 08:15:38;;;;;;;3.07;1.47;;;18.70;80.00;;;;;;4992819;28;20204;-86
2021/05/22 08:18:07;;;;;;;1.40;1.30;;;18.60;80.60;;;;;;4997009;28;20231;-84
2021/05/22 08:20:36;;;;;;;1.80;1.10;;;18.40;80.30;;;;;;4989829;28;20674;-85
2021/05/22 08:23:05;;;;;;;1.40;1.30;;;18.40;80.50;;;;;;4993056;28;20294;-84
2021/05/22 08:25:33;;;;;;;1.93;1.20;;;18.20;80.40;;;;;;4996556;28;20975;-85
2021/05/22 08:28:01;;;;;;;1.53;1.40;;;18.20;80.80;;;;;;5006421;28;20204;-87
2021/05/22 08:30:30;;;;;;;1.73;1.43;;;18.10;80.70;;;;;;4994809;28;20199;-85
2021/05/22 08:32:59;;;;;;;1.43;1.20;;;18.10;80.80;;;;;;4995113;28;20227;-86
2021/05/22 08:35:27;;;;;;;1.30;1.20;;;18.00;80.70;;;;;;4995672;28;20196;-84
2021/05/22 08:37:57;;;;;;;2.50;1.30;;;17.90;80.70;;;;;;4996329;28;20232;-85
2021/05/22 08:40:28;;;;;;;3.63;1.13;;;17.70;81.10;;;;;;5002713;28;20219;-87
2021/05/22 08:42:56;;;;;;;1.50;1.40;;;17.70;81.90;;;;;;4991892;28;20243;-84
2021/05/22 08:45:25;;;;;;;1.40;1.30;;;17.60;81.80;;;;;;5002734;28;20226;-84
2021/05/22 08:47:56;;;;;;;2.30;1.30;;;17.50;83.60;;;;;;4997292;28;20223;-84
2021/05/22 08:50:25;;;;;;;1.43;1.20;;;17.40;84.00;;;;;;5002525;28;20235;-85
2021/05/22 08:52:56;;;;;;;2.00;1.60;;;17.30;84.30;;;;;;5007811;28;20211;-85
2021/05/22 08:55:26;;;;;;;1.93;1.57;;;17.10;85.30;;;;;;5004210;28;20297;-83
2021/05/22 08:57:54;;;;;;;2.10;1.70;;;16.90;85.20;;;;;;5015021;28;20230;-84
2021/05/22 09:00:25;;;;;;;2.30;1.80;;;16.80;85.60;;;;;;5003967;28;20519;-84
2021/05/22 09:02:55;;;;;;;2.10;1.57;;;16.80;85.70;;;;;;5000666;28;20725;-86
2021/05/22 09:05:26;;;;;;;2.10;1.63;;;16.80;86.50;;;;;;5005017;28;20231;-85
2021/05/22 09:08:01;;;;;;;1.57;1.47;;;16.80;86.30;;;;;;5002963;28;20211;-85
2021/05/22 09:10:33;;;;;;;2.13;1.87;;;16.90;87.10;;;;;;4999030;28;20205;-84
2021/05/22 09:13:05;;;;;;;1.70;1.50;;;16.80;86.70;;;;;;5001963;28;20211;-87
2021/05/22 09:15:35;;;;;;;1.50;1.40;;;16.70;86.60;;;;;;5004130;28;21304;-86
2021/05/22 09:18:09;;;;;;;2.20;1.50;;;16.50;86.30;;;;;;5001450;28;20773;-85
2021/05/22 09:20:39;;;;;;;1.50;1.40;;;16.40;86.30;;;;;;5000397;28;20309;-85
2021/05/22 09:23:10;;;;;;;2.27;1.50;;;16.30;86.60;;;;;;5010541;28;20203;-88
2021/05/22 09:25:42;;;;;;;2.87;1.57;;;16.20;87.60;;;;;;5011854;28;20203;-87
2021/05/22 09:28:12;;;;;;;1.97;1.80;;;16.20;88.90;;;;;;5004506;28;20249;-86
2021/05/22 09:30:46;;;;;;;2.33;2.13;;;16.20;89.60;;;;;;5016215;28;20183;-87
2021/05/22 09:33:20;;;;;;;3.10;2.00;;;16.30;89.50;;;;;;5009720;28;20215;-85
2021/05/22 09:35:57;;;;;;;2.00;1.90;;;16.20;89.30;;;;;;5004341;28;20203;-85
2021/05/22 09:38:34;;;;;;;4.13;1.97;;;16.10;90.00;;;;;;5010128;28;20367;-85
2021/05/22 09:41:18;;;;;;;2.13;1.93;;;16.00;90.10;;;;;;5005818;28;20298;-85
2021/05/22 09:44:05;;;;;;;2.67;1.90;;;15.90;90.80;;;;;;5005130;28;20414;-85
2021/05/22 09:46:35;;;;;;;3.23;2.53;;;15.90;90.30;;;;;;5023494;28;20231;-85
2021/05/22 09:49:05;;;;;;;2.47;1.60;;;15.80;89.20;;;;;;5004577;28;20204;-84
2021/05/22 09:51:35;;;;;;;1.77;1.67;;;15.60;88.50;;;;;;5016790;28;20192;-84
2021/05/22 09:54:06;;;;;;;3.10;2.20;;;15.40;89.40;;;;;;5006533;28;20216;-83
2021/05/22 09:56:35;;;;;;;2.47;1.90;;;15.20;90.10;;;;;;5013875;28;20261;-85
2021/05/22 09:59:05;;;;;;;2.97;2.00;;;15.10;90.40;;;;;;5011022;28;20218;-84
2021/05/22 10:01:42;;;;;;;2.67;2.00;;;14.90;90.30;;;;;;5023162;28;20322;-85
2021/05/22 10:04:21;;;;;;;2.40;2.20;;;14.70;91.00;;;;;;5012753;28;20179;-84
2021/05/22 10:06:51;;;;;;;2.60;2.27;;;14.60;91.30;;;;;;5012763;28;20219;-84
2021/05/22 10:09:20;;;;;;;2.97;2.47;;;14.50;91.70;;;;;;5020150;28;20211;-83
2021/05/22 10:12:07;;;;;;;2.30;2.10;;;14.30;92.30;;;;;;5016986;28;20219;-85
2021/05/22 10:14:38;;;;;;;3.60;2.60;;;14.40;92.70;;;;;;5014477;28;20230;-82
2021/05/22 10:17:08;;;;;;;2.90;2.53;;;14.30;92.90;;;;;;5014181;28;20253;-83
2021/05/22 10:19:38;;;;;;;3.10;2.80;;;14.30;93.10;;;;;;5014143;28;20340;-82
2021/05/22 10:22:08;;;;;;;4.93;2.60;;;14.20;92.80;;;;;;5013864;28;20261;-80
2021/05/22 10:24:37;;;;;;;4.33;2.73;;;14.10;93.80;;;;;;5015315;28;20205;-84
2021/05/22 10:27:07;;;;;;;3.47;2.87;;;14.10;94.60;;;;;;5016507;28;20235;-84
2021/05/22 10:29:35;;;;;;;4.10;2.87;;;14.10;95.10;;;;;;5014958;28;20204;-84
2021/05/22 10:32:04;;;;;;;3.90;3.00;;;14.10;95.40;;;;;;5006564;28;20890;-83
2021/05/22 10:34:36;;;;;;;2.97;2.70;;;14.10;95.10;;;;;;5011161;28;20257;-85
2021/05/22 10:37:05;;;;;;;3.90;3.10;;;14.10;95.30;;;;;;5011490;28;20219;-85
2021/05/22 10:39:39;;;;;;;3.87;3.20;;;14.00;95.20;;;;;;5009494;28;20231;-86
2021/05/22 10:42:11;;;;;;;3.33;3.00;;;14.00;95.70;;;;;;5012128;28;20559;-84
2021/05/22 10:44:39;;;;;;;3.63;3.30;;;14.00;96.70;;;;;;5016865;28;20200;-83
2021/05/22 10:47:12;;;;;;;4.17;2.93;;;14.10;97.70;;;;;;5019190;28;20493;-83
2021/05/22 10:49:54;;;;;;;4.70;3.27;;;14.10;97.10;;;;;;5015659;28;20207;-83
2021/05/22 10:52:24;;;;;;;4.80;3.50;;;14.00;97.00;;;;;;4997698;28;20275;-82
2021/05/22 10:55:01;;;;;;;6.07;3.50;;;14.00;98.60;;;;;;4994313;28;20388;-82
2021/05/22 10:57:32;;;;;;;4.57;3.50;;;14.00;98.70;;;;;;5001846;28;20211;-82
2021/05/22 11:00:22;;;;;;;3.97;3.30;;;13.90;98.50;;;;;;4987801;28;20322;-83
2021/05/22 11:02:52;;;;;;;4.70;3.43;;;14.00;99.90;;;;;;5005522;28;20200;-84
2021/05/22 11:05:38;;;;;;;4.23;3.77;;;14.00;99.90;;;;;;5007286;28;20200;-83
2021/05/22 11:08:28;;;;;;;4.27;3.50;;;14.00;99.90;;;;;;5013096;28;20208;-82
2021/05/22 11:11:00;;;;;;;4.87;3.70;;;14.10;99.90;;;;;;5013797;28;20562;-83
2021/05/22 11:13:37;;;;;;;4.67;3.67;;;14.10;99.90;;;;;;5005307;28;20208;-82
2021/05/22 11:16:07;;;;;;;3.80;3.40;;;14.20;99.90;;;;;;5011874;28;20202;-84
2021/05/22 11:19:03;;;;;;;3.93;3.50;;;14.10;99.90;;;;;;5020182;28;20239;-83
2021/05/22 11:21:32;;;;;;;5.60;4.03;;;14.20;99.90;;;;;;4969580;28;20230;-84
2021/05/22 11:24:08;;;;;;;8.03;4.07;;;14.30;99.90;;;;;;4999949;28;20200;-83
2021/05/22 11:27:04;;;;;;;4.23;3.70;;;14.30;99.90;;;;;;5002146;28;20223;-84
2021/05/22 11:29:59;;;;;;;5.03;3.90;;;14.30;99.90;;;;;;4967362;28;20220;-83
2021/05/22 11:32:54;;;;;;;3.80;3.40;;;14.30;99.90;;;;;;4992476;28;20721;-82
2021/05/22 11:35:36;;;;;;;3.80;2.77;;;14.30;99.90;;;;;;4991725;28;20212;-83
2021/05/22 11:38:38;;;;;;;3.10;2.30;;;14.40;99.90;;;;;;4993918;28;20208;-83
2021/05/22 11:41:28;;;;;;;5.57;2.63;;;14.20;94.70;;;;;;4932465;28;20205;-83
2021/05/22 11:44:07;;;;;;;2.40;2.20;;;14.10;94.70;;;;;;4982032;28;20465;-82
2021/05/22 11:46:36;;;;;;;4.20;2.60;;;14.00;95.70;;;;;;4993345;28;20211;-82
2021/05/22 11:49:05;;;;;;;2.93;2.33;;;14.00;95.60;;;;;;4992348;28;20204;-84
2021/05/22 11:51:38;;;;;;;3.40;2.50;;;13.80;94.40;;;;;;5006077;28;20212;-81
2021/05/22 11:54:10;;;;;;;2.87;2.60;;;13.70;95.20;;;;;;5013495;28;20304;-82
2021/05/22 11:56:41;;;;;;;3.60;2.63;;;13.60;97.50;;;;;;5014611;28;20187;-82
2021/05/22 11:59:14;;;;;;;4.80;2.90;;;13.60;98.80;;;;;;5014155;28;20322;-80
2021/05/22 12:01:46;;;;;;;3.13;2.37;;;13.50;97.20;;;;;;5013934;28;20222;-84
2021/05/22 12:04:17;;;;;;;3.60;2.50;;;13.40;96.70;;;;;;5013982;28;20200;-85
2021/05/22 12:06:48;;;;;;;2.60;2.40;;;13.20;97.60;;;;;;5014596;28;20199;-82
2021/05/22 12:09:17;;;;;;;2.60;2.40;;;13.20;99.50;;;;;;5014028;28;20318;-83
2021/05/22 12:11:59;;;;;;;4.00;2.67;;;13.20;99.90;;;;;;5014249;28;20234;-83
2021/05/22 12:14:38;;;;;;;3.43;2.63;;;13.20;99.90;;;;;;5009367;28;20230;-82
2021/05/22 12:17:08;;;;;;;4.73;2.80;;;13.10;99.90;;;;;;5006633;28;20243;-81
2021/05/22 12:19:39;;;;;;;2.87;2.57;;;13.20;99.90;;;;;;5009379;28;20282;-86
2021/05/22 12:22:11;;;;;;;2.50;2.13;;;13.10;99.70;;;;;;5007317;28;20208;-81
2021/05/22 12:24:40;;;;;;;2.83;2.40;;;13.10;99.90;;;;;;5003922;28;20191;-82
2021/05/22 12:27:13;;;;;;;3.53;2.70;;;13.00;99.90;;;;;;4993267;28;20418;-81
2021/05/22 12:29:47;;;;;;;3.20;2.40;;;13.00;99.90;;;;;;4990375;28;20215;-84
2021/05/22 12:32:17;;;;;;;3.03;2.73;;;13.00;99.90;;;;;;4989851;28;20224;-82
2021/05/22 12:34:46;;;;;;;3.30;3.00;;;12.80;99.90;;;;;;4991276;28;20443;-83
2021/05/22 12:37:20;;;;;;;3.90;3.10;;;12.90;99.90;;;;;;4994370;28;20369;-82
2021/05/22 12:39:50;;;;;;;3.97;2.73;;;12.80;99.90;;;;;;4989395;28;20231;-84
2021/05/22 12:42:21;;;;;;;3.77;2.93;;;12.70;99.90;;;;;;4988408;28;20664;-84
2021/05/22 12:44:51;;;;;;;3.87;2.63;;;12.70;99.90;;;;;;4991682;28;20220;-81
2021/05/22 12:47:23;;;;;;;4.00;3.60;;;12.60;99.90;;;;;;5002674;28;20634;-82
2021/05/22 12:49:57;;;;;;;3.83;3.40;;;12.60;99.90;;;;;;4990802;28;20216;-83
2021/05/22 12:52:28;;;;;;;6.23;4.10;;;12.60;99.90;;;;;;5015047;28;20195;-83
2021/05/22 12:54:57;;;;;;;6.00;4.23;;;12.60;99.90;;;;;;5001171;28;20207;-82
2021/05/22 12:57:35;;;;;;;4.53;4.13;;;12.60;99.90;;;;;;5009214;28;20219;-80
2021/05/22 13:00:10;;;;;;;4.63;4.13;;;12.60;99.90;;;;;;4995054;28;20597;-83
2021/05/22 13:02:49;;;;;;;5.43;4.43;;;12.60;99.90;;;;;;5008597;28;20418;-83
2021/05/22 13:05:26;;;;;;;6.13;5.10;;;12.70;99.90;;;;;;5000019;28;20207;-82
2021/05/22 13:07:56;;;;;;;5.73;4.90;;;12.70;99.90;;;;;;4993036;28;20218;-83